Decoded Metar for MKJS (MONTEGO BAY in JAMAICA) (IATA:MBJ) | Meteo·Mobile Aviation Weather
aviador You're here:

MKJS Decoded Metar

MONTEGO BAY in JAMAICA
Report Time2018-11-21 01:00:00
UTC Time2018-11-21 01:38:55
Flight Rules vfr VFR
Wind100° at 08 kt
W.Decomp.*RWY 07: 6.5 kt HW 4.7 kt RCW
W.Rank100° ranks 4
Current wind is above 100° avg. (7.4)
Visibility9999 m
Phenomena:N/A
Clouds:Few 022 Hf
Expected CloudBase > 2,000 ft AGL from Temp-Dew spread
CeilingNone
Temp28°C (ISA +13)
Dew Point23°C (74% RH)
Heat Index31.2°C
QNH1015 hPa
Density Alt1,801 ft
Elevation3 ft
Report Wrong Elevation
Raw Report
METAR MKJS 210100Z 10008KT 9999 FEW022 28/23 Q1015=

Extra information for MKJS:More info

Metar Taf Metar & Taf Last 4 Metars F.Rules Stats Wind Profile Meteogram Temp Stats Airport Information Weather charts Add Link Nearby VenuesMetar ALERT Operation Metar Decoded Social comments